createdAt,value
2019-02-26T00:03:28.639Z,2.30
2019-02-26T00:07:34.114Z,2.37
2019-02-26T00:11:40.233Z,2.40
2019-02-26T00:15:46.014Z,2.43
2019-02-26T00:19:51.761Z,2.43
2019-02-26T00:23:56.649Z,2.50
2019-02-26T00:28:01.537Z,2.60
2019-02-26T00:32:07.112Z,2.47
2019-02-26T00:36:13.729Z,2.63
2019-02-26T00:40:20.336Z,2.50
2019-02-26T00:44:27.342Z,2.63
2019-02-26T00:48:33.632Z,2.77
2019-02-26T00:52:39.213Z,2.37
2019-02-26T00:56:45.104Z,1.77
2019-02-26T01:00:49.992Z,2.60
2019-02-26T01:04:54.885Z,2.30
2019-02-26T01:09:01.845Z,2.17
2019-02-26T01:13:08.920Z,2.57
2019-02-26T01:17:14.855Z,2.87
2019-02-26T01:21:24.142Z,2.27
2019-02-26T01:25:26.990Z,2.30
2019-02-26T01:29:32.349Z,2.37
2019-02-26T01:33:37.336Z,2.33
2019-02-26T01:37:42.225Z,2.30
2019-02-26T01:41:47.919Z,2.17
2019-02-26T01:45:55.382Z,1.93
2019-02-26T01:50:00.393Z,2.47
2019-02-26T01:54:07.387Z,2.07
2019-02-26T01:58:15.809Z,1.73
2019-02-26T02:02:20.276Z,1.90
2019-02-26T02:06:25.069Z,2.47
2019-02-26T02:10:29.955Z,2.00
2019-02-26T02:14:34.841Z,2.00
2019-02-26T02:18:43.764Z,1.90
2019-02-26T02:22:46.387Z,2.10
2019-02-26T02:26:53.543Z,1.83
2019-02-26T02:30:57.850Z,2.00
2019-02-26T02:35:04.398Z,1.77
2019-02-26T02:39:12.923Z,1.70
2019-02-26T02:43:17.980Z,1.80
2019-02-26T02:47:25.039Z,2.00
2019-02-26T02:51:31.473Z,1.60
2019-02-26T02:55:37.770Z,1.50
2019-02-26T02:59:42.461Z,1.50
2019-02-26T03:03:47.740Z,1.83
2019-02-26T03:07:56.260Z,1.70
2019-02-26T03:12:00.532Z,2.03
2019-02-26T03:16:05.411Z,2.20
2019-02-26T03:20:14.282Z,2.17
2019-02-26T03:24:19.173Z,2.23
2019-02-26T03:28:24.068Z,2.33
2019-02-26T03:32:28.960Z,2.23
2019-02-26T03:36:35.066Z,2.20
2019-02-26T03:40:40.437Z,2.10
2019-02-26T03:44:47.038Z,2.23
2019-02-26T03:48:52.076Z,1.80
2019-02-26T03:52:56.953Z,2.23
2019-02-26T03:57:01.918Z,1.87
2019-02-26T04:01:08.418Z,1.60
2019-02-26T04:05:14.531Z,1.90
2019-02-26T04:09:21.881Z,2.10
2019-02-26T04:13:25.999Z,1.87
2019-02-26T04:17:33.541Z,1.40
2019-02-26T04:22:15.256Z,2.10
2019-02-26T04:26:35.592Z,2.30
2019-02-26T04:30:56.513Z,2.40
2019-02-26T04:35:02.856Z,1.83
2019-02-26T04:39:26.171Z,2.03
2019-02-26T04:43:42.749Z,2.83
2019-02-26T04:47:58.323Z,2.87
2019-02-26T04:52:05.578Z,2.50
2019-02-26T04:56:12.766Z,3.50
2019-02-26T05:00:16.297Z,2.27
2019-02-26T05:04:21.177Z,3.17
2019-02-26T05:08:26.243Z,4.57
2019-02-26T05:12:34.154Z,3.90
2019-02-26T05:16:40.149Z,4.47
2019-02-26T05:20:48.128Z,4.37
2019-02-26T05:24:52.806Z,3.73
2019-02-26T05:28:57.495Z,3.93
2019-02-26T05:33:03.489Z,3.27
2019-02-26T05:37:10.998Z,3.70
2019-02-26T05:41:15.891Z,3.30
2019-02-26T05:45:21.994Z,2.93
2019-02-26T05:49:27.356Z,2.67
2019-02-26T05:53:32.250Z,3.00
2019-02-26T05:57:37.136Z,3.10
2019-02-26T06:01:43.769Z,2.70
2019-02-26T06:05:51.354Z,2.40
2019-02-26T06:09:56.425Z,3.00
2019-02-26T06:14:06.696Z,2.53
2019-02-26T06:18:08.447Z,2.47
2019-02-26T06:22:16.943Z,2.03
2019-02-26T06:26:19.902Z,3.20
2019-02-26T06:30:24.797Z,2.40
2019-02-26T06:34:29.694Z,3.23
2019-02-26T06:38:35.052Z,2.47
2019-02-26T06:42:40.391Z,5.87
2019-02-26T06:46:45.332Z,2.60
2019-02-26T06:50:50.252Z,2.57
2019-02-26T06:54:58.062Z,2.10
2019-02-26T06:59:05.765Z,2.73
2019-02-26T07:03:11.357Z,2.63
2019-02-26T07:07:16.240Z,3.40
2019-02-26T07:11:21.137Z,2.73
2019-02-26T07:15:28.810Z,2.90
2019-02-26T07:19:33.251Z,2.80
2019-02-26T07:23:40.001Z,2.80
2019-02-26T07:27:44.972Z,3.37
2019-02-26T07:31:51.723Z,3.90
2019-02-26T07:35:57.410Z,3.80
2019-02-26T07:40:05.234Z,5.43
2019-02-26T07:44:15.438Z,3.70
2019-02-26T07:48:18.692Z,4.57
2019-02-26T07:52:24.348Z,4.60
2019-02-26T07:56:32.077Z,5.47
2019-02-26T08:00:37.680Z,5.63
2019-02-26T08:04:43.641Z,9.33
2019-02-26T08:08:48.967Z,7.30
2019-02-26T08:12:53.896Z,6.53
2019-02-26T08:17:01.339Z,4.30
2019-02-26T08:21:05.402Z,3.97
2019-02-26T08:25:11.305Z,6.13
2019-02-26T08:29:16.213Z,9.83
2019-02-26T08:33:21.104Z,4.77
2019-02-26T08:37:26.009Z,4.53
2019-02-26T08:41:30.917Z,3.50
2019-02-26T08:45:35.808Z,4.00
2019-02-26T08:49:42.649Z,11.00
2019-02-26T08:53:49.406Z,8.83
2019-02-26T08:57:56.543Z,6.40
2019-02-26T09:02:01.331Z,4.30
2019-02-26T09:06:12.869Z,6.70
2019-02-26T09:10:22.709Z,9.47
2019-02-26T09:14:25.403Z,9.57
2019-02-26T09:18:31.539Z,6.17
2019-02-26T09:22:36.898Z,5.77
2019-02-26T09:26:41.804Z,2.63
2019-02-26T09:30:46.691Z,2.17
2019-02-26T09:34:52.100Z,1.97
2019-02-26T09:38:58.171Z,1.30
2019-02-26T09:43:03.078Z,1.83
2019-02-26T09:47:07.962Z,1.63
2019-02-26T09:51:14.767Z,1.50
2019-02-26T09:55:19.511Z,1.57
2019-02-26T09:59:26.320Z,1.53
2019-02-26T10:03:35.656Z,1.30
2019-02-26T10:07:38.731Z,1.57
2019-02-26T10:11:45.192Z,1.10
2019-02-26T10:15:50.382Z,1.20
2019-02-26T10:19:56.972Z,1.20
2019-02-26T10:24:02.793Z,1.17
2019-02-26T10:28:11.153Z,1.70
2019-02-26T10:32:15.067Z,1.60
2019-02-26T10:36:19.956Z,1.67
2019-02-26T10:40:34.285Z,1.40
2019-02-26T10:44:31.701Z,1.43
2019-02-26T10:48:36.633Z,1.50
2019-02-26T10:52:41.509Z,1.60
2019-02-26T10:56:46.657Z,1.20
2019-02-26T11:00:54.800Z,1.50
2019-02-26T11:04:58.911Z,1.27
2019-02-26T11:09:05.315Z,1.60
2019-02-26T11:13:12.996Z,1.60
2019-02-26T11:17:20.750Z,2.13
2019-02-26T11:21:25.038Z,2.23
2019-02-26T11:25:29.939Z,3.30
2019-02-26T11:29:36.399Z,3.40
2019-02-26T11:33:41.424Z,4.00
2019-02-26T11:37:47.288Z,3.73
2019-02-26T11:41:54.563Z,4.20
2019-02-26T11:46:01.488Z,3.47
2019-02-26T11:50:11.751Z,4.27
2019-02-26T11:54:17.721Z,3.47
2019-02-26T11:58:24.286Z,4.07
2019-02-26T12:02:33.395Z,3.97
2019-02-26T12:06:35.931Z,4.80
2019-02-26T12:10:40.856Z,4.10
2019-02-26T12:14:48.333Z,4.83
2019-02-26T12:18:52.349Z,4.57
2019-02-26T12:22:57.246Z,4.27
2019-02-26T12:27:02.151Z,3.97
2019-02-26T12:31:09.912Z,4.37
2019-02-26T12:35:15.894Z,4.97
2019-02-26T12:39:22.145Z,4.10
2019-02-26T12:43:26.971Z,4.37
2019-02-26T12:47:31.865Z,3.90
2019-02-26T12:51:36.766Z,4.50
2019-02-26T12:55:42.686Z,3.63
2019-02-26T12:59:47.749Z,4.33
2019-02-26T13:03:54.908Z,4.67
2019-02-26T13:07:59.250Z,3.90
2019-02-26T13:12:04.221Z,3.97
2019-02-26T13:16:09.119Z,4.00
2019-02-26T13:20:16.048Z,3.70
2019-02-26T13:24:26.106Z,2.57
2019-02-26T13:28:29.728Z,2.90
2019-02-26T13:32:54.107Z,4.00
2019-02-26T13:36:43.650Z,3.07
2019-02-26T13:40:48.003Z,2.90
2019-02-26T13:44:52.887Z,2.90
2019-02-26T13:48:57.795Z,2.60
2019-02-26T13:53:02.699Z,2.50
2019-02-26T13:57:09.161Z,2.67
2019-02-26T14:01:14.265Z,2.57
2019-02-26T14:05:19.149Z,1.80
2019-02-26T14:09:24.291Z,1.30
2019-02-26T14:13:29.191Z,1.00
2019-02-26T14:17:34.089Z,1.27
2019-02-26T14:21:38.986Z,0.90
2019-02-26T14:25:43.884Z,0.83
2019-02-26T14:29:48.777Z,1.30
2019-02-26T14:33:53.695Z,1.40
2019-02-26T14:37:58.590Z,0.83
2019-02-26T14:42:03.495Z,1.20
2019-02-26T14:46:08.388Z,0.97
2019-02-26T14:50:15.225Z,0.90
2019-02-26T14:54:20.300Z,1.00
2019-02-26T14:58:25.205Z,1.00
2019-02-26T15:02:30.098Z,0.90
2019-02-26T15:06:34.983Z,1.50
2019-02-26T15:10:39.880Z,2.37
2019-02-26T15:14:44.785Z,1.27
2019-02-26T15:18:49.704Z,1.10
2019-02-26T15:22:54.585Z,1.77
2019-02-26T15:26:59.469Z,1.20
2019-02-26T15:31:04.383Z,1.27
2019-02-26T15:35:09.446Z,1.10
2019-02-26T15:39:14.541Z,1.80
2019-02-26T15:43:19.442Z,1.60
2019-02-26T15:47:24.329Z,1.70
2019-02-26T15:51:29.262Z,1.73
2019-02-26T15:55:34.179Z,1.50
2019-02-26T15:59:39.090Z,1.80
2019-02-26T16:03:43.992Z,1.40
2019-02-26T16:07:48.877Z,1.93
2019-02-26T16:11:53.781Z,1.20
2019-02-26T16:15:58.679Z,1.33
2019-02-26T16:20:10.451Z,1.20
2019-02-26T16:24:15.353Z,1.43
2019-02-26T16:28:21.328Z,2.30
2019-02-26T16:32:26.233Z,1.60
2019-02-26T16:36:31.606Z,1.80
2019-02-26T16:40:37.112Z,0.93
2019-02-26T16:44:42.281Z,0.90
2019-02-26T16:48:47.176Z,1.47
2019-02-26T16:52:52.070Z,1.10
2019-02-26T16:56:56.972Z,1.70
2019-02-26T17:01:01.875Z,2.00
2019-02-26T17:05:14.331Z,1.77
2019-02-26T17:09:19.040Z,1.90
2019-02-26T17:13:24.473Z,2.13
2019-02-26T17:17:29.547Z,1.97
2019-02-26T17:21:34.449Z,1.73
2019-02-26T17:25:39.349Z,1.77
2019-02-26T17:29:44.239Z,2.13
2019-02-26T17:33:49.132Z,3.20
2019-02-26T17:37:54.064Z,3.20
2019-02-26T17:41:58.927Z,3.13
2019-02-26T17:46:03.998Z,2.30
2019-02-26T17:50:17.667Z,2.07
2019-02-26T17:54:22.569Z,2.57
2019-02-26T17:58:27.477Z,4.27
2019-02-26T18:02:32.400Z,3.13
2019-02-26T18:06:37.287Z,2.93
2019-02-26T18:10:42.178Z,3.33
2019-02-26T18:14:47.076Z,4.00
2019-02-26T18:18:51.988Z,5.10
2019-02-26T18:22:59.927Z,3.23
2019-02-26T18:27:03.669Z,2.63
2019-02-26T18:31:08.672Z,2.40
2019-02-26T18:35:13.569Z,2.20
2019-02-26T18:39:22.366Z,3.43
2019-02-26T18:43:25.198Z,2.43
2019-02-26T18:47:30.093Z,3.13
2019-02-26T18:51:36.409Z,4.30
2019-02-26T18:55:41.651Z,3.80
2019-02-26T18:59:46.544Z,3.70
2019-02-26T19:03:51.443Z,3.43
2019-02-26T19:07:56.346Z,3.33
2019-02-26T19:12:01.237Z,3.40
2019-02-26T19:16:06.289Z,4.63
2019-02-26T19:20:14.951Z,4.57
2019-02-26T19:24:20.492Z,4.20
2019-02-26T19:28:26.441Z,4.30
2019-02-26T19:32:32.509Z,5.13
2019-02-26T19:36:37.391Z,4.97
2019-02-26T19:40:54.349Z,4.80
2019-02-26T19:44:59.239Z,4.40
2019-02-26T19:49:05.713Z,4.43
2019-02-26T19:53:10.875Z,4.20
2019-02-26T19:57:15.697Z,4.37
2019-02-26T20:01:20.594Z,6.17
2019-02-26T20:05:25.487Z,4.27
2019-02-26T20:09:30.393Z,4.13
2019-02-26T20:13:35.287Z,4.97
2019-02-26T20:17:40.252Z,5.67
2019-02-26T20:21:45.141Z,4.37
2019-02-26T20:25:50.041Z,4.87
2019-02-26T20:29:54.937Z,9.63
2019-02-26T20:33:59.830Z,3.93
2019-02-26T20:38:04.704Z,4.17
2019-02-26T20:42:09.611Z,4.00
2019-02-26T20:46:14.504Z,4.20
2019-02-26T20:50:21.090Z,3.67
2019-02-26T20:54:26.029Z,3.60
2019-02-26T20:58:30.924Z,2.90
2019-02-26T21:02:35.811Z,3.77
2019-02-26T21:06:40.712Z,4.00
2019-02-26T21:10:45.875Z,3.60
2019-02-26T21:14:52.192Z,2.97
2019-02-26T21:18:57.084Z,4.27
2019-02-26T21:23:01.969Z,4.50
2019-02-26T21:27:06.854Z,3.47
2019-02-26T21:31:11.744Z,3.00
2019-02-26T21:35:20.194Z,3.03
2019-02-26T21:39:23.212Z,3.57
2019-02-26T21:43:28.104Z,3.23
2019-02-26T21:47:33.008Z,3.50
2019-02-26T21:51:37.903Z,3.73
2019-02-26T21:55:44.332Z,3.73
2019-02-26T21:59:50.130Z,2.90
2019-02-26T22:03:58.476Z,3.17
2019-02-26T22:08:02.774Z,3.63
2019-02-26T22:12:07.660Z,4.00
2019-02-26T22:16:14.947Z,3.57
2019-02-26T22:20:35.504Z,3.30
2019-02-26T22:24:26.556Z,3.60
2019-02-26T22:28:31.449Z,3.90
2019-02-26T22:32:36.334Z,3.60
2019-02-26T22:36:41.220Z,3.33
2019-02-26T22:40:46.103Z,2.90
2019-02-26T22:44:54.564Z,2.60
2019-02-26T22:48:58.648Z,3.30
2019-02-26T22:53:04.089Z,2.40
2019-02-26T22:57:09.494Z,2.93
2019-02-26T23:01:30.281Z,2.80
2019-02-26T23:05:31.905Z,2.70
2019-02-26T23:09:37.410Z,2.60
2019-02-26T23:13:43.534Z,3.27
2019-02-26T23:17:48.602Z,2.60
2019-02-26T23:21:53.484Z,2.50
2019-02-26T23:25:58.440Z,3.40
2019-02-26T23:30:05.639Z,2.87
2019-02-26T23:34:11.904Z,2.90
2019-02-26T23:38:16.794Z,3.60
2019-02-26T23:42:21.680Z,2.73
2019-02-26T23:46:29.577Z,2.77
2019-02-26T23:50:34.228Z,3.13
2019-02-26T23:54:39.934Z,2.83
2019-02-26T23:58:45.285Z,2.93
